Airfield :
LOGIN :

Register | Disclaimer

   EN    FR    IT 

 










Legend :    VFR   Marginal VFR   IFR   Intensive IFR   Very Intensive IFR
Visi :
Ceiling :
>= 8 km
>= 3000ft
5 to 8 km
1000 to 3000 ft
1500m to 5 km
500 to 1000 ft
800 to 1500m
200 to 500 ft
< 800m
< 200 ft
Symbols :   Thunderstorms  Fog  Heavy snow  Heavy precipitations  Wind > 20 kt
SIGMETs :     Misc.  Thunderstorms  Icing  Turbulence  Mountain Waves  Volcanic Ashes






- Airport Elevation : 461 ft
- IATA code : WIE


ETOU - Wiesbaden Army

CURRENT METAR :
  • 200356Z AUTO 07006KT 9999 OVC025 12/07 A3006 RMK AO2 SLP181 T01210070 $

EXPIRED METARs :
  • 200256Z AUTO 08005KT 9999 BKN028 OVC050 12/07 A3005 RMK AO2 CIG 028V050 BKN V FEW CIG 027 RWY07 SLP177 T01230072 51002 $
  • 200156Z AUTO 08005KT 9999 FEW029 OVC050 13/07 A3005 RMK AO2 SLP177 T01250072 $

TAF TAF ETOU
Valid from the 20 at 04:00 until the 21 at 10:00 UTC


200401Z 2004/2110 VRB06KT 9999 BKN025 BKN050 QNH3008INS
BECMG 2023/2024 03006KT 9999 BKN030 QNH3029INS TX16/2015Z TN11/2004Z



MET'MAP, your aeronautical weather chart ! - Copyright ORBIFLY December 2007 - Disclaimer

ORBIFLY MET'MAP TEAM :

Programming & Development : Alexandra Zaïnal
Concept & original design : Baudouin d'Aumeries
Assistance for programming : Marc-Olivier Méhu
Technical & hardware support : Manuel Goepfert

Contact : metmap@orbifly.com




SOURCES & CREDITS :

   NOAA